Box Canyon, California
Current Conditions -  °F | °C
As of 6:51 PM on Monday 20 Oct 2014 (Local Time) from KVNY Reporting Station
Scattered Clouds Scattered Clouds  
Wind Chill: 73°   Ceiling: Unl
Heat Index: 73°   Visibility: 10mi
Dew Point: 57°   Wind: 5mph
Humidity: 57%   Direction: NA
Pressure: 29.87"   Gusts: NA
Location:  34.2242°N, 118.632°W
Report Text: KVNY 210151Z VRB04KT 10SM SCT150 23/14 A2987 RMK AO2 SLP109 T02280139
Loading
Personal Weather Stations






























Interactive Weather Map
Tropical Storm Tracking
New forecast layout! Learn more

10-Day Weather Forecast

Advertisements
Track Severe Weather on mobile